Latest Weather Observations for Merimbula

IDN60801

Issued at 7:05 pm EDT Thursday 23 October 2014 (issued every 30 minutes, with the page automatically refreshed every 10 minutes)

About weather observations | Map of weather stations | Latest weather observations for NSW | Other Formats
Station Details ID: 069147 Name: MERIMBULA AIRPORT AWS Lat: -36.91 Lon: 149.90 Height: 1.5 m
Data from the previous 72 hours. | See also: Recent months at Merimbula
Date/Time
EDT
Temp
°C
App
Temp
°C
Dew
Point
Rel
Hum
%
Delta-T
°C
Wind Press
QNH
hPa
Press
MSL
hPa
Rain
since 9 am
mm
Dir
 
Spd
km/h
Gust
km/h
Spd
kts
Gust
kts
23/07:00pm 17.4 17.7 15.9 91 0.9 ESE 9 15 5 8 1019.4 1019.4 0.2
23/06:58pm 17.3 17.4 15.6 90 1.0 ENE 9 15 5 8 1019.2 1019.2 0.0
23/06:45pm 17.4 17.9 15.6 89 1.1 ESE 7 13 4 7 1019.0 1019.0 0.0
23/06:30pm 17.4 17.8 15.4 88 1.2 S 7 13 4 7 1019.7 1019.7 0.0
23/06:00pm 17.4 17.5 15.4 88 1.2 SE 9 13 5 7 1018.8 1018.8 0.0
23/05:30pm 17.5 17.5 15.3 87 1.3 ENE 9 15 5 8 1019.2 1019.2 0.0
23/05:00pm 18.0 17.6 15.3 84 1.6 E 11 17 6 9 1019.5 1019.5 0.0
23/04:30pm 18.4 16.9 15.3 82 1.8 E 17 24 9 13 1018.6 1018.6 0.0
23/04:09pm 19.3 18.5 15.2 77 2.4 E 13 20 7 11 1018.5 1018.5 0.0
23/04:00pm 20.3 19.3 15.7 75 2.7 E 15 22 8 12 1018.3 1018.3 0.0
23/03:30pm 20.8 20.0 16.0 74 2.9 ENE 15 24 8 13 1018.0 1018.0 0.0
23/03:00pm 20.9 19.9 15.7 72 3.1 ENE 15 22 8 12 1017.9 1017.9 0.0
23/02:30pm 21.8 21.4 16.1 70 3.4 E 13 22 7 12 1018.0 1018.0 0.0
23/02:00pm 21.9 20.8 14.3 62 4.4 E 13 20 7 11 1018.0 1018.0 0.0
23/01:30pm 23.1 21.8 14.7 59 5.0 E 15 22 8 12 1017.8 1017.8 0.0
23/01:00pm 23.1 21.8 13.6 55 5.5 ENE 13 17 7 9 1017.9 1017.9 0.0
23/12:30pm 23.1 22.2 13.6 55 5.5 E 11 17 6 9 1018.0 1018.0 0.0
23/12:00pm 23.2 21.8 13.4 54 5.7 E 13 19 7 10 1018.1 1018.1 0.0
23/11:30am 23.6 23.5 14.9 58 5.2 E 9 15 5 8 1018.2 1018.2 0.0
23/11:00am 22.2 23.3 14.6 62 4.5 SW 2 9 1 5 1018.4 1018.4 0.0
23/10:30am 21.4 21.2 14.6 65 4.0 SSW 9 13 5 7 1018.3 1018.3 0.0
23/10:00am 20.1 20.4 14.9 72 3.0 S 7 9 4 5 1018.1 1018.1 0.0
23/09:30am 19.3 21.1 15.4 78 2.3 CALM 0 0 0 0 1017.8 1017.8 0.0
23/09:00am 17.7 19.1 14.4 81 1.9 NNW 0 7 0 4 1017.4 1017.4 0.0
23/08:30am 17.1 18.4 14.0 82 1.8 CALM 0 0 0 0 1017.1 1017.1 0.0
23/08:00am 15.6 16.9 14.0 90 0.9 CALM 0 0 0 0 1018.0 1018.0 0.0
23/07:30am 14.3 15.5 13.7 96 0.3 CALM 0 0 0 0 1017.9 1017.9 0.0
23/07:00am 12.2 12.3 11.6 96 0.3 S 2 7 1 4 1017.5 1017.5 0.0
23/06:36am 11.3 10.4 10.5 95 0.4 S 6 9 3 5 1016.8 1016.8 0.0
23/06:30am 10.7 10.3 9.8 94 0.5 SSW 2 9 1 5 1016.7 1016.7 0.0
23/06:20am 10.6 10.6 9.7 94 0.5 CALM 0 0 0 0 1016.7 1016.7 0.0
23/06:00am 11.0 11.1 10.1 94 0.5 SW 0 6 0 3 1016.5 1016.5 0.0
23/05:30am 11.5 11.7 10.7 95 0.4 CALM 0 9 0 5 1016.4 1016.4 0.0
23/05:00am 12.0 12.4 11.2 95 0.4 CALM 0 0 0 0 1016.3 1016.3 0.0
23/04:30am 12.3 12.8 11.5 95 0.4 CALM 0 0 0 0 1016.4 1016.4 0.0
23/04:00am 12.3 12.8 11.5 95 0.4 CALM 0 0 0 0 1016.4 1016.4 0.0
23/03:30am 12.2 12.6 11.4 95 0.4 CALM 0 0 0 0 1016.4 1016.4 0.0
23/03:00am 12.0 12.4 11.2 95 0.4 CALM 0 0 0 0 1016.5 1016.5 0.0
23/02:30am 11.6 11.8 10.7 94 0.5 CALM 0 0 0 0 1016.8 1016.8 0.0
23/02:00am 12.0 12.0 11.2 95 0.4 SW 2 9 1 5 1017.3 1017.3 0.0
23/01:30am 12.0 11.1 11.2 95 0.4 SW 7 13 4 7 1017.6 1017.6 0.0
23/01:00am 11.8 12.1 10.9 94 0.5 CALM 0 0 0 0 1017.9 1017.9 0.0
23/12:30am 11.3 11.4 10.2 93 0.6 CALM 0 0 0 0 1018.1 1018.1 0.0
23/12:00am 11.7 11.9 10.6 93 0.6 SSW 0 0 0 0 1018.3 1018.3 0.0
 
Date/Time
EDT
Temp
°C
App
Temp
°C
Dew
Point
Rel
Hum
%
Delta-T
°C
Wind Press
QNH
hPa
Press
MSL
hPa
Rain
since 9 am
mm
Dir
 
Spd
km/h
Gust
km/h
Spd
kts
Gust
kts
22/11:30pm 12.0 12.3 10.9 93 0.6 CALM 0 0 0 0 1018.5 1018.5 0.0
22/11:00pm 12.7 13.2 11.6 93 0.6 CALM 0 0 0 0 1018.5 1018.5 0.0
22/10:30pm 12.9 13.4 11.5 91 0.7 CALM 0 0 0 0 1018.9 1018.9 0.0
22/10:00pm 13.1 13.6 11.5 90 0.8 CALM 0 0 0 0 1019.0 1019.0 0.0
22/09:30pm 13.6 14.1 11.5 87 1.1 CALM 0 0 0 0 1019.1 1019.1 0.0
22/09:00pm 14.6 15.4 12.5 87 1.1 CALM 0 0 0 0 1019.0 1019.0 0.0
22/08:30pm 15.1 15.8 12.1 82 1.6 CALM 0 0 0 0 1018.8 1018.8 0.0
22/08:00pm 16.6 17.5 12.9 79 2.1 CALM 0 0 0 0 1018.4 1018.4 0.0
22/07:30pm 17.1 18.0 13.0 77 2.3 CALM 0 0 0 0 1018.6 1018.6 0.0
22/07:00pm 17.9 16.4 13.2 74 2.6 NE 13 17 7 9 1018.3 1018.3 0.0
22/06:30pm 18.6 16.7 13.0 70 3.2 NE 15 24 8 13 1018.2 1018.2 0.0
22/06:00pm 19.1 16.7 12.8 67 3.5 NNE 17 22 9 12 1018.3 1018.3 0.0
22/05:30pm 19.6 17.2 12.6 64 3.9 NNE 17 26 9 14 1018.4 1018.4 0.0
22/05:00pm 19.6 16.7 12.4 63 4.0 NNE 19 28 10 15 1018.5 1018.5 0.0
22/04:30pm 19.8 16.8 12.1 61 4.3 NNE 19 32 10 17 1018.5 1018.5 0.0
22/04:00pm 19.8 16.2 11.8 60 4.4 NE 22 35 12 19 1018.7 1018.7 0.0
22/03:30pm 20.1 16.6 12.1 60 4.5 NE 22 35 12 19 1018.9 1018.9 0.0
22/03:00pm 20.2 16.9 11.7 58 4.7 NE 20 35 11 19 1019.2 1019.2 0.0
22/02:30pm 20.1 16.4 11.6 58 4.7 NNE 22 37 12 20 1019.7 1019.7 0.0
22/02:00pm 20.2 16.4 11.1 56 5.0 NE 22 43 12 23 1020.0 1020.0 0.0
22/01:30pm 20.2 16.6 11.7 58 4.7 NE 22 33 12 18 1020.5 1020.5 0.0
22/01:00pm 20.2 16.6 11.7 58 4.7 NE 22 39 12 21 1020.9 1020.9 0.0
22/12:30pm 20.0 16.7 11.0 56 4.9 NNE 19 32 10 17 1021.5 1021.5 0.0
22/12:00pm 19.9 16.2 11.4 58 4.7 NE 22 35 12 19 1022.0 1022.0 0.0
22/11:30am 19.6 15.3 10.6 56 4.9 NE 24 35 13 19 1022.6 1022.6 0.0
22/11:00am 19.2 15.0 9.7 54 5.0 NE 22 35 12 19 1023.1 1023.1 0.0
22/10:30am 19.1 15.3 9.9 55 4.9 NE 20 30 11 16 1023.6 1023.6 0.0
22/10:00am 18.7 15.2 8.7 52 5.2 N 17 24 9 13 1024.0 1024.0 0.0
22/09:30am 18.4 15.3 8.9 54 4.9 N 15 24 8 13 1024.4 1024.4 0.0
22/09:00am 17.2 13.8 7.8 54 4.7 N 15 26 8 14 1024.5 1024.5 0.0
22/08:30am 16.4 14.1 8.9 61 3.9 NNW 11 19 6 10 1024.7 1024.7 0.0
22/08:00am 14.2 12.7 8.4 68 2.9 NW 6 13 3 7 1024.9 1024.9 0.0
22/07:30am 11.7 11.4 8.6 81 1.5 CALM 0 0 0 0 1025.0 1025.0 0.0
22/07:00am 9.6 8.0 8.0 90 0.8 SW 6 9 3 5 1025.2 1025.2 0.0
22/06:30am 8.7 7.6 6.7 87 0.9 WSW 2 9 1 5 1025.2 1025.2 0.0
22/06:00am 10.0 8.6 7.4 84 1.2 NW 4 11 2 6 1025.1 1025.1 0.0
22/05:30am 11.9 9.7 7.8 76 2.0 NW 9 15 5 8 1025.0 1025.0 0.0
22/05:00am 12.8 9.8 7.7 71 2.5 N 13 19 7 10 1025.0 1025.0 0.0
22/04:30am 13.0 10.0 7.7 70 2.6 N 13 20 7 11 1025.5 1025.5 0.0
22/04:00am 13.7 10.0 7.9 68 2.9 N 17 26 9 14 1025.6 1025.6 0.0
22/03:30am 13.7 9.9 7.7 67 3.0 N 17 26 9 14 1025.9 1025.9 0.0
22/03:00am 13.8 10.0 7.6 66 3.0 N 17 30 9 16 1026.3 1026.3 0.0
22/02:30am 13.7 9.9 7.7 67 3.0 N 17 26 9 14 1026.8 1026.8 0.0
22/02:00am 13.4 10.4 7.6 68 2.8 N 13 20 7 11 1027.4 1027.4 0.0
22/01:30am 13.3 10.6 7.5 68 2.8 N 11 22 6 12 1027.7 1027.7 0.0
22/01:00am 13.9 10.9 7.7 66 3.0 N 13 24 7 13 1028.1 1028.1 0.0
22/12:30am 14.4 10.6 7.7 64 3.3 N 17 26 9 14 1028.6 1028.6 0.0
22/12:00am 14.2 10.9 8.2 67 3.0 N 15 26 8 14 1029.2 1029.2 0.0
 
Date/Time
EDT
Temp
°C
App
Temp
°C
Dew
Point
Rel
Hum
%
Delta-T
°C
Wind Press
QNH
hPa
Press
MSL
hPa
Rain
since 9 am
mm
Dir
 
Spd
km/h
Gust
km/h
Spd
kts
Gust
kts
21/11:30pm 14.3 10.7 8.5 68 2.9 N 17 24 9 13 1029.3 1029.3 0.0
21/11:00pm 14.2 11.5 8.8 70 2.7 NNW 13 20 7 11 1029.6 1029.6 0.0
21/10:30pm 14.4 11.7 9.0 70 2.7 N 13 20 7 11 1029.7 1029.7 0.0
21/10:00pm 14.9 12.3 9.3 69 2.9 N 13 20 7 11 1029.9 1029.9 0.0
21/09:30pm 14.9 12.3 9.5 70 2.8 N 13 17 7 9 1030.0 1030.0 0.0
21/09:00pm 15.2 13.1 9.8 70 2.8 N 11 19 6 10 1030.0 1030.0 0.0
21/08:30pm 15.5 13.9 10.1 70 2.8 N 9 17 5 9 1029.9 1029.9 0.0
21/08:00pm 15.7 13.3 10.0 69 3.0 N 13 20 7 11 1029.8 1029.8 0.0
21/07:30pm 15.9 13.1 10.0 68 3.1 N 15 28 8 15 1029.5 1029.5 0.0
21/07:00pm 16.1 12.9 10.0 67 3.2 N 17 28 9 15 1029.4 1029.4 0.0
21/06:30pm 16.2 13.2 9.4 64 3.5 NNE 15 28 8 15 1029.4 1029.4 0.0
21/06:00pm 16.4 14.0 10.0 66 3.3 NNE 13 24 7 13 1029.4 1029.4 0.0
21/05:30pm 16.6 13.7 9.5 63 3.7 NNE 15 24 8 13 1029.5 1029.5 0.0
21/05:00pm 16.8 13.1 9.5 62 3.8 NNE 19 30 10 16 1029.6 1029.6 0.0
21/04:30pm 17.1 13.2 9.5 61 4.0 NE 20 35 11 19 1029.4 1029.4 0.0
21/04:00pm 17.3 13.3 9.0 58 4.3 NE 20 33 11 18 1029.7 1029.7 0.0
21/03:30pm 17.4 13.1 8.0 54 4.8 NE 20 32 11 17 1030.1 1030.1 0.0
21/03:00pm 17.6 13.3 7.9 53 4.9 NE 20 32 11 17 1030.5 1030.5 0.0
21/02:30pm 17.9 13.2 7.9 52 5.1 NE 22 32 12 17 1030.7 1030.7 0.0
21/02:00pm 17.8 13.6 8.4 54 4.8 NE 20 32 11 17 1031.2 1031.2 0.0
21/01:30pm 17.1 12.8 8.0 55 4.6 NE 20 35 11 19 1031.7 1031.7 0.0
21/01:00pm 17.1 12.8 7.7 54 4.7 NNE 20 33 11 18 1032.0 1032.0 0.0
21/12:30pm 17.3 12.8 8.7 57 4.4 ENE 22 32 12 17 1032.4 1032.4 0.0
21/12:00pm 17.2 12.9 7.0 51 5.0 NE 19 30 10 16 1032.8 1032.8 0.0
21/11:30am 17.2 13.6 8.4 56 4.5 NE 17 28 9 15 1033.1 1033.1 0.0
21/11:00am 16.7 13.6 7.1 53 4.7 NE 13 24 7 13 1033.2 1033.2 0.0
21/10:30am 16.3 13.3 7.5 56 4.4 ENE 13 17 7 9 1033.4 1033.4 0.0
21/10:00am 15.4 14.5 7.7 60 3.8 NNE 2 9 1 5 1033.5 1033.5 0.0
21/09:30am 14.7 14.3 8.4 66 3.2 CALM 0 0 0 0 1033.5 1033.5 0.0
21/09:00am 14.2 13.9 8.8 70 2.7 CALM 0 0 0 0 1033.3 1033.3 0.2
21/08:30am 13.3 13.1 9.2 76 2.1 CALM 0 0 0 0 1033.2 1033.2 0.2
21/08:00am 12.8 12.7 9.6 81 1.6 CALM 0 0 0 0 1032.9 1032.9 0.2
21/07:30am 12.3 12.3 9.7 84 1.3 CALM 0 0 0 0 1032.7 1032.7 0.2
21/07:00am 11.9 11.8 9.5 85 1.2 CALM 0 0 0 0 1032.5 1032.5 0.2
21/06:30am 11.7 11.6 9.3 85 1.2 CALM 0 0 0 0 1032.4 1032.4 0.2
21/06:00am 11.7 11.4 8.7 82 1.5 CALM 0 0 0 0 1032.1 1032.1 0.2
21/05:30am 11.6 11.4 9.2 85 1.2 CALM 0 0 0 0 1032.0 1032.0 0.2
21/05:00am 11.7 11.5 9.1 84 1.3 CALM 0 0 0 0 1031.9 1031.9 0.2
21/04:30am 12.0 11.8 9.2 83 1.4 CALM 0 0 0 0 1032.0 1032.0 0.2
21/04:00am 12.1 11.7 8.4 78 1.8 CALM 0 0 0 0 1032.1 1032.1 0.2
21/03:30am 12.0 11.7 8.7 80 1.6 CALM 0 0 0 0 1032.2 1032.2 0.2
21/03:00am 12.0 11.6 8.1 77 1.9 CALM 0 0 0 0 1032.5 1032.5 0.2
21/02:30am 12.0 11.8 9.2 83 1.4 CALM 0 0 0 0 1032.7 1032.7 0.2
21/02:00am 12.1 11.9 9.1 82 1.5 CALM 0 0 0 0 1032.9 1032.9 0.2
21/01:30am 12.2 12.0 9.0 81 1.6 CALM 0 0 0 0 1033.1 1033.1 0.2
21/01:00am 12.3 12.0 8.8 79 1.7 CALM 0 0 0 0 1033.3 1033.3 0.2
21/12:30am 12.6 12.4 8.9 78 1.9 CALM 0 0 0 0 1033.5 1033.5 0.2
21/12:00am 13.1 12.7 8.4 73 2.3 CALM 0 0 0 0 1033.6 1033.6 0.2
 
Date/Time
EDT
Temp
°C
App
Temp
°C
Dew
Point
Rel
Hum
%
Delta-T
°C
Wind Press
QNH
hPa
Press
MSL
hPa
Rain
since 9 am
mm
Dir
 
Spd
km/h
Gust
km/h
Spd
kts
Gust
kts
20/11:30pm 13.9 11.8 6.7 62 3.5 ENE 7 11 4 6 1033.7 1033.7 0.2
20/11:00pm 14.1 11.6 6.7 61 3.5 ENE 9 15 5 8 1033.6 1033.6 0.2
20/10:30pm 14.1 12.0 6.7 61 3.6 E 7 13 4 7 1033.6 1033.6 0.2
20/10:00pm 14.0 11.8 6.1 59 3.7 E 7 11 4 6 1033.7 1033.7 0.2
20/09:30pm 14.2 11.6 6.3 59 3.8 E 9 15 5 8 1033.7 1033.7 0.2
20/09:00pm 14.2 11.2 5.8 57 3.9 E 11 17 6 9 1033.6 1033.6 0.2
20/08:30pm 14.1 11.5 6.0 58 3.9 E 9 13 5 7 1033.4 1033.4 0.2
20/08:00pm 14.1 11.5 6.2 59 3.7 ESE 9 13 5 7 1033.1 1033.1 0.2
20/07:30pm 14.1 11.5 6.2 59 3.8 E 9 15 5 8 1032.9 1032.9 0.0

Other Formats:

Comma delimited format used in spreadsheet applications
http://www.bom.gov.au/fwo/IDN60801/IDN60801.95929.axf

JavaScript Object Notation format (JSON) in row-major order
http://www.bom.gov.au/fwo/IDN60801/IDN60801.95929.json